Time;durP1;ratioP1;P1;durP2;ratioP2;P2;SDS_P1;SDS_P2;PMS_P1;PMS_P2;Temp;Humidity;BMP_temperature;BMP_pressure;BME280_temperature;BME280_humidity;BME280_pressure;Samples;Min_cycle;Max_cycle;Signal;HPM_P1;HPM_P2
2022/12/01 00:00:04;;;;;;;62.28;27.25;;;;;;;6.98;53.32;102835.38;7394389;19;20013;-63
2022/12/01 00:02:30;;;;;;;68.70;27.05;;;;;;;6.99;53.27;102829.63;7392428;19;20006;-63
2022/12/01 00:04:56;;;;;;;67.22;27.17;;;;;;;6.98;53.39;102833.47;7393678;19;20001;-63
2022/12/01 00:07:21;;;;;;;64.32;25.80;;;;;;;6.90;53.30;102839.38;7392491;19;20098;-62
2022/12/01 00:12:31;;;;;;;63.75;25.95;;;;;;;6.83;53.55;102836.09;7392346;19;20061;-62
2022/12/01 00:14:59;;;;;;;67.65;26.55;;;;;;;6.88;53.52;102844.25;7393966;19;19990;-62
2022/12/01 00:17:28;;;;;;;68.00;27.80;;;;;;;6.86;53.41;102833.66;7394150;19;20105;-61
2022/12/01 00:19:55;;;;;;;66.50;27.38;;;;;;;6.94;53.46;102837.78;7393616;19;20455;-63
2022/12/01 00:22:20;;;;;;;66.90;28.40;;;;;;;6.96;53.37;102829.34;7392249;19;20336;-61
2022/12/01 00:24:46;;;;;;;70.55;26.15;;;;;;;6.96;53.14;102830.19;7393315;19;19995;-62
2022/12/01 00:27:12;;;;;;;60.17;26.33;;;;;;;6.97;53.16;102829.09;7392168;19;19991;-64
2022/12/01 00:29:37;;;;;;;64.88;26.35;;;;;;;6.92;53.41;102831.00;7392016;19;20073;-63
2022/12/01 00:32:03;;;;;;;66.60;26.20;;;;;;;7.12;52.90;102827.53;7392277;19;20002;-63
2022/12/01 00:34:29;;;;;;;68.05;26.30;;;;;;;7.17;52.78;102835.66;7393184;19;20007;-63
2022/12/01 00:36:55;;;;;;;63.63;27.23;;;;;;;7.12;52.71;102839.19;7392470;19;20323;-65
2022/12/01 00:39:21;;;;;;;60.53;26.23;;;;;;;7.06;52.86;102832.09;7393210;19;20002;-63
2022/12/01 00:41:46;;;;;;;67.47;26.90;;;;;;;6.92;53.32;102834.50;7392162;19;20449;-62
2022/12/01 00:44:12;;;;;;;67.75;28.27;;;;;;;7.05;52.69;102831.28;7392989;19;19999;-63
2022/12/01 00:46:38;;;;;;;64.65;27.83;;;;;;;7.16;52.68;102836.75;7390687;19;20589;-64
2022/12/01 00:49:04;;;;;;;73.00;28.83;;;;;;;7.12;52.71;102833.75;7389517;19;20075;-61
2022/12/01 00:51:30;;;;;;;74.53;29.33;;;;;;;7.08;52.81;102837.25;7392190;19;20006;-61
2022/12/01 00:53:57;;;;;;;74.95;29.88;;;;;;;7.05;52.75;102835.91;7393126;19;20471;-62
2022/12/01 00:56:22;;;;;;;72.97;29.45;;;;;;;7.12;52.67;102836.47;7390175;19;20303;-62
2022/12/01 00:58:48;;;;;;;71.18;28.42;;;;;;;7.17;52.41;102843.81;7391882;19;20004;-61
2022/12/01 01:01:14;;;;;;;68.57;30.10;;;;;;;7.09;52.59;102834.28;7392018;19;20006;-62
2022/12/01 01:03:40;;;;;;;72.25;28.70;;;;;;;7.04;52.78;102837.81;7388962;19;20019;-63
2022/12/01 01:06:10;;;;;;;65.68;28.83;;;;;;;7.01;52.84;102843.78;7389904;19;19995;-61
2022/12/01 01:08:36;;;;;;;69.10;28.92;;;;;;;6.95;52.96;102850.28;7392009;19;20022;-62
2022/12/01 01:11:02;;;;;;;75.07;30.00;;;;;;;6.91;53.35;102846.47;7390887;19;19998;-62
2022/12/01 01:13:36;;;;;;;75.40;29.77;;;;;;;7.02;52.85;102839.97;7389791;19;20002;-62
2022/12/01 01:16:12;;;;;;;77.72;31.17;;;;;;;7.00;52.99;102844.84;7391454;19;20010;-61
2022/12/01 01:18:38;;;;;;;71.18;28.40;;;;;;;6.87;53.33;102848.84;7391750;19;20010;-62
2022/12/01 01:21:07;;;;;;;70.45;29.80;;;;;;;6.91;53.13;102857.34;7392010;19;19998;-61
2022/12/01 01:23:33;;;;;;;81.15;31.17;;;;;;;6.95;53.03;102844.84;7390974;19;20003;-63
2022/12/01 01:26:04;;;;;;;74.32;29.45;;;;;;;6.82;53.37;102850.72;7390970;19;19999;-63
2022/12/01 01:28:31;;;;;;;75.53;29.83;;;;;;;6.77;53.34;102848.00;7392311;19;20317;-63
2022/12/01 01:30:57;;;;;;;75.75;30.25;;;;;;;6.83;53.35;102850.47;7391658;19;20007;-62
2022/12/01 01:33:23;;;;;;;76.55;30.17;;;;;;;6.83;53.21;102846.94;7389274;19;20581;-62
2022/12/01 01:35:49;;;;;;;83.60;31.02;;;;;;;6.86;53.15;102855.38;7390240;19;20005;-62
2022/12/01 01:38:15;;;;;;;78.93;31.98;;;;;;;6.94;53.15;102853.25;7390823;19;20340;-62
2022/12/01 01:40:46;;;;;;;74.50;31.65;;;;;;;7.04;52.55;102854.13;7391102;19;20003;-62
2022/12/01 01:43:15;;;;;;;78.15;31.52;;;;;;;6.84;53.20;102860.25;7389068;19;20034;-62
2022/12/01 01:45:41;;;;;;;78.00;31.80;;;;;;;6.81;53.23;102862.66;7390394;19;20029;-62
2022/12/01 01:48:09;;;;;;;80.75;32.53;;;;;;;6.81;53.26;102860.78;7391228;19;19999;-62
2022/12/01 01:50:34;;;;;;;75.28;30.67;;;;;;;6.83;53.28;102860.53;7391302;19;20006;-61
2022/12/01 01:53:04;;;;;;;82.13;33.00;;;;;;;6.83;53.31;102863.25;7389226;19;20006;-61
2022/12/01 01:55:32;;;;;;;77.30;31.33;;;;;;;6.94;53.04;102869.53;7390727;19;20002;-62
2022/12/01 01:57:59;;;;;;;76.72;32.40;;;;;;;6.81;53.11;102868.09;7391009;19;20010;-61
2022/12/01 02:00:25;;;;;;;87.55;32.78;;;;;;;6.81;53.17;102866.22;7390402;19;20007;-61
2022/12/01 02:02:52;;;;;;;79.05;32.25;;;;;;;6.93;52.96;102863.31;7392906;19;20010;-61
2022/12/01 02:05:31;;;;;;;90.40;34.85;;;;;;;6.92;53.15;102867.09;7397758;19;20001;-61
2022/12/01 02:07:58;;;;;;;85.70;32.65;;;;;;;6.94;52.92;102854.06;7396263;19;20095;-61
2022/12/01 02:11:05;;;;;;;81.15;32.22;;;;;;;6.98;53.06;102859.81;7398206;19;20077;-61
2022/12/01 02:13:58;;;;;;;87.80;33.30;;;;;;;6.97;52.84;102869.00;7396055;19;19998;-62
2022/12/01 02:16:34;;;;;;;75.73;32.07;;;;;;;7.02;52.82;102867.13;7396995;19;19991;-62
2022/12/01 02:19:29;;;;;;;80.88;33.58;;;;;;;7.12;52.44;102860.09;7396022;19;19994;-61
2022/12/01 02:22:05;;;;;;;81.78;33.95;;;;;;;7.01;52.66;102864.66;7396077;19;19998;-62
2022/12/01 02:25:05;;;;;;;80.93;32.63;;;;;;;6.90;52.88;102863.00;7397261;19;20020;-59
2022/12/01 02:28:03;;;;;;;85.03;34.45;;;;;;;6.94;52.90;102858.69;7391985;19;20018;-58
2022/12/01 02:30:55;;;;;;;82.55;33.58;;;;;;;6.88;53.29;102860.53;7397410;19;20014;-59
2022/12/01 02:33:27;;;;;;;87.90;34.38;;;;;;;6.89;53.16;102856.72;7392686;19;20028;-59
2022/12/01 02:36:19;;;;;;;81.57;33.10;;;;;;;6.98;52.86;102857.09;7396857;19;20016;-59
2022/12/01 02:38:57;;;;;;;89.18;34.15;;;;;;;6.99;53.04;102861.41;7393668;19;20006;-59
2022/12/01 02:41:42;;;;;;;81.80;33.85;;;;;;;6.84;52.81;102864.84;7394049;19;20471;-59
2022/12/01 02:44:11;;;;;;;80.38;35.20;;;;;;;6.90;53.25;102863.81;7395705;19;20504;-59
2022/12/01 02:46:45;;;;;;;83.20;33.58;;;;;;;6.96;52.82;102865.50;7394081;19;20090;-59
2022/12/01 02:49:17;;;;;;;;;;;;;;;6.91;53.03;102864.59;7395354;19;20102;-59
2022/12/01 02:51:44;;;;;;;83.70;32.25;;;;;;;6.95;52.92;102861.13;7395620;19;19925;-59
2022/12/01 02:54:13;;;;;;;86.55;34.83;;;;;;;6.96;52.92;102862.78;7396907;19;20025;-59
2022/12/01 02:56:39;;;;;;;80.45;34.00;;;;;;;6.89;53.08;102864.88;7396007;19;20002;-60
2022/12/01 02:59:13;;;;;;;84.93;34.63;;;;;;;6.90;53.15;102857.56;7396165;19;20011;-60
2022/12/01 03:01:41;;;;;;;81.57;33.78;;;;;;;6.92;53.15;102860.84;7396252;19;20014;-60
2022/12/01 03:05:00;;;;;;;82.78;34.33;;;;;;;6.95;53.10;102863.84;7393187;19;20022;-58
2022/12/01 03:07:42;;;;;;;87.57;35.55;;;;;;;6.95;53.07;102861.13;7390901;19;20023;-60
2022/12/01 03:10:31;;;;;;;87.07;35.35;;;;;;;6.93;53.08;102857.03;7395566;19;20002;-59
2022/12/01 03:13:03;;;;;;;95.18;36.85;;;;;;;6.88;53.04;102855.13;7393118;19;20002;-60
2022/12/01 03:15:31;;;;;;;87.47;36.25;;;;;;;6.74;53.46;102853.97;7395478;19;20380;-59
2022/12/01 03:18:20;;;;;;;88.78;37.35;;;;;;;6.84;53.24;102862.13;7395534;19;20013;-59
2022/12/01 03:21:10;;;;;;;81.15;34.85;;;;;;;6.84;53.29;102859.41;7394487;19;20002;-60
2022/12/01 03:23:40;;;;;;;87.57;35.35;;;;;;;6.96;53.03;102856.50;7394309;19;20001;-60
2022/12/01 03:26:10;;;;;;;90.22;36.88;;;;;;;6.89;53.16;102858.63;7394013;19;20010;-60
2022/12/01 03:28:42;;;;;;;82.78;35.38;;;;;;;6.82;53.08;102853.44;7395281;19;20015;-58
2022/12/01 03:31:12;;;;;;;94.47;36.47;;;;;;;6.82;53.09;102856.16;7394013;19;20013;-59
2022/12/01 03:33:51;;;;;;;82.88;34.65;;;;;;;6.76;53.31;102851.78;7395081;19;20002;-59
2022/12/01 03:36:41;;;;;;;82.40;36.05;;;;;;;6.93;53.17;102860.59;7394588;19;20007;-60
2022/12/01 03:39:13;;;;;;;81.88;36.53;;;;;;;6.98;52.83;102852.47;7395192;19;20103;-59
2022/12/01 03:41:46;;;;;;;84.43;34.53;;;;;;;7.02;52.67;102850.03;7394027;19;20324;-59
2022/12/01 03:44:19;;;;;;;79.88;34.80;;;;;;;6.90;52.79;102852.13;7394571;19;20010;-59
2022/12/01 03:47:11;;;;;;;84.30;36.53;;;;;;;6.72;53.39;102851.50;7393307;19;20022;-59
2022/12/01 03:49:38;;;;;;;79.22;36.10;;;;;;;6.74;53.45;102849.34;7394916;19;20009;-59
2022/12/01 03:52:38;;;;;;;79.03;35.92;;;;;;;6.86;53.27;102851.81;7392317;19;20349;-60
2022/12/01 03:55:19;;;;;;;79.05;34.97;;;;;;;6.83;53.00;102855.09;7394492;19;20002;-59
2022/12/01 03:57:54;;;;;;;78.13;36.22;;;;;;;6.81;53.33;102854.53;7392170;19;20021;-59
2022/12/01 04:00:20;;;;;;;79.38;36.13;;;;;;;6.79;53.32;102853.97;7395371;19;20602;-60
2022/12/01 04:02:47;;;;;;;75.90;34.15;;;;;;;6.92;52.92;102858.94;7392305;19;20010;-60
2022/12/01 04:05:13;;;;;;;77.78;36.28;;;;;;;6.83;53.40;102857.81;7392433;19;20521;-61
2022/12/01 04:07:39;;;;;;;81.03;37.72;;;;;;;7.03;52.79;102857.09;7392242;19;19994;-59
2022/12/01 04:10:06;;;;;;;78.95;36.35;;;;;;;6.87;53.03;102856.19;7393532;19;19994;-59
2022/12/01 04:12:32;;;;;;;78.43;36.17;;;;;;;6.94;52.89;102864.91;7392396;19;20350;-59
2022/12/01 04:15:01;;;;;;;77.50;36.85;;;;;;;6.92;52.98;102864.38;7392411;19;20025;-60
2022/12/01 04:17:27;;;;;;;72.53;35.22;;;;;;;6.78;53.24;102861.31;7394310;19;20015;-59
2022/12/01 04:19:53;;;;;;;74.00;35.33;;;;;;;6.83;53.21;102872.19;7393216;19;20027;-59
2022/12/01 04:22:19;;;;;;;71.13;35.63;;;;;;;6.86;53.18;102873.53;7392891;19;20002;-59
2022/12/01 04:24:45;;;;;;;76.65;35.88;;;;;;;6.86;53.04;102873.53;7389778;19;20033;-59
2022/12/01 04:27:11;;;;;;;74.53;35.80;;;;;;;6.83;53.11;102874.91;7392429;19;19999;-59
2022/12/01 04:29:37;;;;;;;72.82;35.40;;;;;;;6.88;53.03;102868.69;7393487;19;20406;-58
2022/12/01 04:32:03;;;;;;;74.20;35.70;;;;;;;6.94;52.91;102866.81;7390505;19;20003;-59
2022/12/01 04:34:29;;;;;;;72.78;36.50;;;;;;;6.91;52.86;102873.63;7392937;19;20102;-59
2022/12/01 04:36:55;;;;;;;75.60;36.45;;;;;;;6.81;53.19;102870.81;7392368;19;20493;-59
2022/12/01 04:39:20;;;;;;;76.65;38.15;;;;;;;6.78;53.17;102871.38;7390931;19;20688;-59
2022/12/01 04:41:46;;;;;;;72.28;36.38;;;;;;;6.81;53.34;102870.81;7391464;19;20016;-60
2022/12/01 04:44:12;;;;;;;77.32;37.08;;;;;;;6.92;52.98;102875.22;7392584;19;20046;-59
2022/12/01 04:46:38;;;;;;;70.82;36.53;;;;;;;6.95;52.86;102866.56;7388387;19;20490;-59
2022/12/01 04:49:04;;;;;;;77.70;36.97;;;;;;;6.82;53.29;102872.44;7392445;19;19998;-58
2022/12/01 04:51:30;;;;;;;82.05;37.00;;;;;;;6.85;53.08;102877.34;7391516;19;20101;-60
2022/12/01 04:53:56;;;;;;;73.78;36.45;;;;;;;6.87;52.89;102876.00;7392690;19;20021;-59
2022/12/01 04:56:22;;;;;;;81.90;38.38;;;;;;;6.84;53.14;102878.44;7392002;19;20320;-59
2022/12/01 04:58:48;;;;;;;81.68;37.40;;;;;;;6.83;52.92;102874.91;7392105;19;20009;-60
2022/12/01 05:01:16;;;;;;;74.43;36.08;;;;;;;6.85;53.10;102874.63;7392313;19;20003;-60
2022/12/01 05:03:44;;;;;;;82.25;37.95;;;;;;;6.91;52.91;102876.34;7389967;19;20018;-59
2022/12/01 05:06:13;;;;;;;74.43;37.05;;;;;;;6.90;53.01;102871.13;7390961;19;20023;-59
2022/12/01 05:08:39;;;;;;;74.60;36.88;;;;;;;7.01;52.66;102870.94;7389903;19;20041;-60
2022/12/01 05:11:07;;;;;;;69.32;34.88;;;;;;;6.93;52.66;102867.91;7391853;19;19998;-60
2022/12/01 05:13:38;;;;;;;77.13;39.03;;;;;;;6.83;52.88;102874.09;7392525;19;20009;-59
2022/12/01 05:16:08;;;;;;;77.53;36.97;;;;;;;6.93;52.61;102871.44;7391169;19;20018;-59
2022/12/01 05:18:34;;;;;;;77.38;37.72;;;;;;;6.97;52.52;102880.69;7391368;19;20002;-60
2022/12/01 05:21:01;;;;;;;75.00;37.53;;;;;;;6.92;52.72;102877.94;7391877;19;20091;-58
2022/12/01 05:23:30;;;;;;;80.35;38.08;;;;;;;6.94;52.56;102886.63;7389257;19;20021;-59
2022/12/01 05:25:56;;;;;;;77.90;37.33;;;;;;;6.94;52.72;102883.94;7391155;19;19991;-59
2022/12/01 05:28:24;;;;;;;75.78;37.63;;;;;;;6.93;52.43;102885.03;7391876;19;20136;-60
2022/12/01 05:30:50;;;;;;;77.55;37.90;;;;;;;6.98;52.49;102886.94;7390757;19;20010;-59
2022/12/01 05:33:16;;;;;;;74.50;36.78;;;;;;;7.01;52.33;102884.50;7389224;19;20002;-59
2022/12/01 05:35:42;;;;;;;75.70;37.28;;;;;;;6.87;52.57;102892.28;7390121;19;20010;-59
2022/12/01 05:38:08;;;;;;;76.97;38.15;;;;;;;6.91;52.58;102887.19;7392162;19;20010;-60
2022/12/01 05:40:34;;;;;;;82.22;38.72;;;;;;;6.94;52.65;102892.06;7390719;19;20025;-59
2022/12/01 05:43:00;;;;;;;79.45;37.67;;;;;;;6.94;52.58;102897.50;7389569;19;20036;-61
2022/12/01 05:45:26;;;;;;;74.40;36.63;;;;;;;6.93;52.38;102886.91;7388496;19;20011;-59
2022/12/01 05:47:56;;;;;;;69.97;35.53;;;;;;;6.98;52.37;102886.94;7389840;19;20010;-59
2022/12/01 05:50:23;;;;;;;75.47;36.80;;;;;;;6.95;52.64;102890.19;7390918;19;20024;-59
2022/12/01 05:52:49;;;;;;;77.45;37.42;;;;;;;7.01;52.41;102886.41;7387517;19;20019;-59
2022/12/01 05:55:15;;;;;;;73.53;36.42;;;;;;;6.94;52.48;102891.25;7389774;19;19999;-59
2022/12/01 05:57:41;;;;;;;73.10;37.25;;;;;;;6.93;52.44;102885.03;7391649;19;20013;-59
2022/12/01 06:00:07;;;;;;;72.32;36.85;;;;;;;7.00;52.41;102895.63;7389258;19;20003;-59
2022/12/01 06:02:33;;;;;;;76.10;36.47;;;;;;;7.01;52.24;102889.94;7388168;19;20003;-59
2022/12/01 06:04:58;;;;;;;76.43;36.63;;;;;;;7.03;52.13;102893.22;7388419;19;20003;-59
2022/12/01 06:07:24;;;;;;;70.85;36.15;;;;;;;7.00;52.49;102901.88;7389006;19;19999;-60
2022/12/01 06:09:51;;;;;;;81.38;37.22;;;;;;;6.91;52.47;102903.47;7390558;19;20012;-60
2022/12/01 06:12:18;;;;;;;71.07;36.40;;;;;;;6.92;52.44;102898.88;7388872;19;19998;-59
2022/12/01 06:14:44;;;;;;;76.13;37.78;;;;;;;6.91;52.52;102891.75;7391045;19;20016;-59
2022/12/01 06:17:10;;;;;;;78.10;36.53;;;;;;;6.89;52.57;102896.63;7389738;19;19999;-59
2022/12/01 06:19:36;;;;;;;73.20;35.85;;;;;;;6.88;52.67;102901.25;7390623;19;20006;-59
2022/12/01 06:22:02;;;;;;;82.35;37.92;;;;;;;6.90;52.55;102901.00;7389339;19;20006;-59
2022/12/01 06:24:28;;;;;;;74.20;37.25;;;;;;;6.96;52.40;102903.50;7389916;19;20115;-59
2022/12/01 06:26:54;;;;;;;75.35;37.00;;;;;;;6.96;52.25;102906.22;7388073;19;20003;-60
2022/12/01 06:29:20;;;;;;;80.97;36.45;;;;;;;6.95;52.41;102904.56;7389774;19;20331;-59
2022/12/01 06:31:45;;;;;;;73.68;35.88;;;;;;;6.93;52.59;102904.03;7388643;19;20390;-60
2022/12/01 06:34:11;;;;;;;74.28;37.00;;;;;;;6.97;52.26;102902.41;7390179;19;20006;-59
2022/12/01 06:36:37;;;;;;;77.60;37.28;;;;;;;6.99;52.31;102905.66;7389233;19;20308;-59
2022/12/01 06:39:08;;;;;;;72.30;36.08;;;;;;;7.04;52.11;102902.16;7389304;19;19986;-59
2022/12/01 06:41:36;;;;;;;74.32;36.00;;;;;;;7.02;52.34;102910.56;7388529;19;20455;-58
2022/12/01 06:44:02;;;;;;;74.50;36.70;;;;;;;6.96;52.57;102908.94;7389615;19;20332;-58
2022/12/01 06:46:28;;;;;;;77.75;36.70;;;;;;;6.86;52.54;102908.84;7388031;19;20351;-59
2022/12/01 06:48:53;;;;;;;74.18;35.60;;;;;;;6.76;53.05;102916.94;7395163;19;19991;-59
2022/12/01 06:51:19;;;;;;;73.47;35.88;;;;;;;6.84;52.91;102911.84;7397029;19;20001;-58
2022/12/01 06:53:45;;;;;;;76.72;38.25;;;;;;;6.94;52.57;102908.34;7394865;19;19998;-59
2022/12/01 06:56:11;;;;;;;77.45;37.90;;;;;;;6.92;52.54;102913.25;7396043;19;20021;-60
2022/12/01 06:58:37;;;;;;;77.13;37.25;;;;;;;6.95;52.57;102912.72;7396281;19;20013;-60
2022/12/01 07:01:10;;;;;;;79.45;39.40;;;;;;;7.02;52.20;102910.56;7396201;19;19999;-59
2022/12/01 07:03:37;;;;;;;77.63;39.50;;;;;;;7.05;52.05;102925.53;7394748;19;20009;-60
2022/12/01 07:06:03;;;;;;;75.95;36.65;;;;;;;7.01;52.18;102925.25;7394240;19;20406;-59
2022/12/01 07:08:30;;;;;;;76.88;38.20;;;;;;;7.04;52.12;102927.44;7396010;19;20038;-59
2022/12/01 07:11:01;;;;;;;78.88;38.60;;;;;;;7.00;52.13;102930.94;7395749;19;19995;-59
2022/12/01 07:13:27;;;;;;;74.95;37.65;;;;;;;6.84;52.53;102935.44;7393055;19;19990;-60
2022/12/01 07:15:53;;;;;;;80.43;38.47;;;;;;;6.75;52.56;102931.59;7395065;19;20003;-60
2022/12/01 07:18:19;;;;;;;77.65;37.67;;;;;;;6.74;52.40;102924.53;7396054;19;20422;-60
2022/12/01 07:20:44;;;;;;;73.75;38.03;;;;;;;6.88;52.21;102933.84;7395349;19;20016;-60
2022/12/01 07:23:10;;;;;;;73.22;36.72;;;;;;;7.00;51.91;102939.09;7395338;19;20335;-60
2022/12/01 07:25:36;;;;;;;74.15;36.90;;;;;;;6.94;51.66;102949.09;7395277;19;20003;-59
2022/12/01 07:28:01;;;;;;;72.00;35.88;;;;;;;6.95;51.63;102941.78;7392851;19;20380;-59
2022/12/01 07:30:27;;;;;;;73.43;37.08;;;;;;;6.88;52.08;102939.28;7395151;19;20010;-59
2022/12/01 07:32:53;;;;;;;75.07;38.20;;;;;;;6.96;51.74;102941.50;7392872;19;20002;-59
2022/12/01 07:35:19;;;;;;;78.88;38.28;;;;;;;6.94;51.86;102949.09;7394141;19;19991;-58
2022/12/01 07:37:44;;;;;;;74.75;36.85;;;;;;;6.97;51.76;102951.28;7394500;19;20002;-59
2022/12/01 07:40:11;;;;;;;74.70;37.55;;;;;;;7.07;51.23;102955.13;7395373;19;20007;-59
2022/12/01 07:42:40;;;;;;;72.78;37.67;;;;;;;7.04;51.43;102949.16;7391427;19;20022;-60
2022/12/01 07:45:06;;;;;;;75.47;38.60;;;;;;;6.89;51.66;102964.50;7393595;19;20105;-59
2022/12/01 07:47:32;;;;;;;72.60;36.45;;;;;;;7.01;51.44;102955.13;7392570;19;20025;-59
2022/12/01 07:49:57;;;;;;;79.65;38.90;;;;;;;6.95;51.64;102955.34;7394226;19;19998;-60
2022/12/01 07:52:23;;;;;;;76.25;37.67;;;;;;;6.91;51.72;102944.22;7393345;19;19999;-59
2022/12/01 07:54:49;;;;;;;76.95;37.90;;;;;;;6.91;51.62;102946.91;7393570;19;19999;-59
2022/12/01 07:57:16;;;;;;;79.88;38.47;;;;;;;6.90;51.47;102942.53;7394059;19;19998;-60
2022/12/01 07:59:42;;;;;;;76.78;37.80;;;;;;;6.94;51.32;102940.94;7393864;19;20454;-60
2022/12/01 08:02:09;;;;;;;74.72;37.00;;;;;;;6.92;51.46;102947.72;7393470;19;20015;-60
2022/12/01 08:04:35;;;;;;;70.90;37.78;;;;;;;7.02;51.29;102959.44;7391268;19;20037;-60
2022/12/01 08:07:01;;;;;;;79.60;37.85;;;;;;;6.81;51.43;102952.25;7391021;19;20077;-60
2022/12/01 08:09:27;;;;;;;75.63;37.42;;;;;;;6.84;51.27;102962.56;7393521;19;20023;-60
2022/12/01 08:11:52;;;;;;;73.60;37.97;;;;;;;6.66;51.67;102956.50;7391218;19;19998;-59
2022/12/01 08:14:19;;;;;;;67.82;35.70;;;;;;;6.77;51.30;102956.56;7393058;19;20078;-59
2022/12/01 08:16:44;;;;;;;70.75;37.13;;;;;;;6.82;51.23;102959.31;7393233;19;20008;-59
2022/12/01 08:19:10;;;;;;;76.00;37.17;;;;;;;6.92;51.04;102955.88;7393185;19;20082;-58
2022/12/01 08:21:36;;;;;;;75.00;37.03;;;;;;;6.94;50.97;102964.56;7391228;19;20033;-60
2022/12/01 08:24:03;;;;;;;73.97;37.05;;;;;;;6.77;51.34;102960.09;7394133;19;20013;-60
2022/12/01 08:26:29;;;;;;;77.95;38.55;;;;;;;6.86;51.02;102966.69;7392076;19;20013;-59
2022/12/01 08:28:56;;;;;;;75.03;37.65;;;;;;;6.94;50.79;102967.28;7393251;19;20362;-59
2022/12/01 08:31:24;;;;;;;76.63;38.33;;;;;;;6.92;50.89;102972.16;7393045;19;20240;-59
2022/12/01 08:33:51;;;;;;;76.70;37.83;;;;;;;6.90;51.16;102972.38;7393631;19;20312;-59
2022/12/01 08:36:19;;;;;;;77.10;37.58;;;;;;;6.80;50.84;102965.00;7391753;19;20089;-59
2022/12/01 08:38:47;;;;;;;77.85;38.55;;;;;;;6.68;51.21;102976.06;7392380;19;20538;-59
2022/12/01 08:41:13;;;;;;;77.20;38.50;;;;;;;6.73;51.31;102971.72;7391992;19;20010;-59
2022/12/01 08:43:41;;;;;;;76.43;37.25;;;;;;;6.81;51.06;102971.25;7392560;19;20015;-59
2022/12/01 08:46:07;;;;;;;73.68;38.15;;;;;;;6.87;50.56;102971.00;7392037;19;20014;-59
2022/12/01 08:48:34;;;;;;;73.68;36.40;;;;;;;6.87;50.55;102979.16;7391414;19;20319;-59
2022/12/01 08:51:20;;;;;;;73.15;36.40;;;;;;;6.81;50.58;102980.22;7392087;19;20002;-61
2022/12/01 08:53:47;;;;;;;68.15;35.85;;;;;;;6.96;50.40;102984.97;7392133;19;20011;-59
2022/12/01 08:56:20;;;;;;;73.38;35.35;;;;;;;6.99;50.22;102989.03;7392122;19;20029;-58
2022/12/01 08:58:46;;;;;;;73.55;35.97;;;;;;;6.91;50.42;102978.63;7390483;19;20003;-58
2022/12/01 09:01:14;;;;;;;68.72;35.75;;;;;;;6.93;50.45;102984.63;7392022;19;20007;-59
2022/12/01 09:03:41;;;;;;;68.90;36.65;;;;;;;7.01;50.29;102989.56;7390387;19;20177;-59
2022/12/01 09:06:13;;;;;;;74.07;36.17;;;;;;;6.91;49.96;102981.34;7391365;19;20067;-58
2022/12/01 09:08:39;;;;;;;74.40;36.88;;;;;;;7.01;49.86;102987.69;7391652;19;20006;-59
2022/12/01 09:11:12;;;;;;;68.57;35.00;;;;;;;7.02;49.90;102994.75;7390625;19;20018;-59
2022/12/01 09:13:39;;;;;;;69.55;34.80;;;;;;;6.94;50.03;102995.25;7389848;19;20002;-60
2022/12/01 09:16:09;;;;;;;67.70;35.58;;;;;;;7.02;49.86;102999.38;7391622;19;20022;-60
2022/12/01 09:18:34;;;;;;;71.38;35.28;;;;;;;6.99;49.83;103003.41;7390353;19;19994;-60
2022/12/01 09:21:09;;;;;;;70.82;35.28;;;;;;;7.09;49.55;102993.69;7391674;19;20007;-59
2022/12/01 09:23:34;;;;;;;71.03;35.10;;;;;;;7.09;49.43;102999.94;7391865;19;19998;-59
2022/12/01 09:26:00;;;;;;;74.47;34.17;;;;;;;7.03;49.36;103004.53;7390802;19;19999;-60
2022/12/01 09:28:26;;;;;;;66.53;35.53;;;;;;;7.00;49.55;103005.06;7391096;19;20403;-60
2022/12/01 09:30:51;;;;;;;68.05;34.63;;;;;;;6.92;50.01;103010.97;7391241;19;19998;-59
2022/12/01 09:33:17;;;;;;;66.55;34.47;;;;;;;7.03;49.39;103011.88;7389945;19;20014;-60
2022/12/01 09:35:43;;;;;;;67.70;35.85;;;;;;;6.92;49.64;103010.19;7389989;19;20451;-60
2022/12/01 09:38:09;;;;;;;66.13;34.78;;;;;;;6.98;49.63;103012.66;7391149;19;20022;-60
2022/12/01 09:40:39;;;;;;;66.05;33.88;;;;;;;7.03;49.36;103004.53;7390987;19;19998;-60
2022/12/01 09:43:18;;;;;;;66.63;34.53;;;;;;;7.13;49.43;103008.38;7389327;19;20010;-59
2022/12/01 09:45:51;;;;;;;64.53;33.25;;;;;;;7.18;49.27;103003.00;7390892;19;19994;-59
2022/12/01 09:48:32;;;;;;;67.95;34.72;;;;;;;7.16;49.00;103007.84;7391082;19;20003;-59
2022/12/01 09:50:58;;;;;;;64.82;33.92;;;;;;;7.12;49.24;103002.13;7390891;19;20097;-60
2022/12/01 09:53:27;;;;;;;62.08;33.65;;;;;;;7.13;49.23;103000.22;7388881;19;20470;-58
2022/12/01 09:55:54;;;;;;;65.82;34.00;;;;;;;7.23;48.87;103003.03;7392676;19;20005;-58
2022/12/01 09:58:25;;;;;;;62.97;33.22;;;;;;;7.09;49.25;103002.66;7390908;19;20009;-58
2022/12/01 10:00:53;;;;;;;67.25;34.58;;;;;;;7.12;49.22;103002.13;7390539;19;19995;-59
2022/12/01 10:03:31;;;;;;;71.97;35.92;;;;;;;7.03;49.06;102992.88;7388386;19;20011;-59
2022/12/01 10:06:13;;;;;;;68.57;34.70;;;;;;;7.08;49.17;102989.34;7390094;19;19999;-57
2022/12/01 10:08:46;;;;;;;69.70;35.25;;;;;;;7.19;49.04;102993.75;7391455;19;20099;-58
2022/12/01 10:11:23;;;;;;;64.85;34.65;;;;;;;7.16;48.99;102997.00;7390858;19;20462;-58
2022/12/01 10:13:49;;;;;;;72.43;35.05;;;;;;;7.15;49.10;102990.75;7391355;19;20003;-58
2022/12/01 10:16:24;;;;;;;65.10;35.28;;;;;;;7.13;48.97;102994.78;7390659;19;20033;-57
2022/12/01 10:19:37;;;;;;;67.30;33.90;;;;;;;7.05;48.58;102999.66;7392098;19;20016;-57
2022/12/01 10:22:22;;;;;;;67.05;33.78;;;;;;;7.00;49.08;102996.09;7387245;19;20009;-57
2022/12/01 10:25:02;;;;;;;69.65;34.75;;;;;;;7.08;48.92;102994.78;7395314;19;19994;-57
2022/12/01 10:27:41;;;;;;;70.70;33.13;;;;;;;7.21;48.58;102984.25;7395108;19;20006;-58
2022/12/01 10:30:16;;;;;;;70.38;35.30;;;;;;;7.30;48.66;102983.75;7398964;19;20002;-58
2022/12/01 10:32:41;;;;;;;68.95;33.13;;;;;;;7.27;48.68;102982.38;7397452;19;20030;-57
2022/12/01 10:35:14;;;;;;;77.40;35.30;;;;;;;7.09;48.81;102980.13;7397839;19;20003;-56
2022/12/01 10:37:40;;;;;;;64.78;34.22;;;;;;;7.15;48.68;102984.50;7397232;19;20014;-57
2022/12/01 10:40:11;;;;;;;68.22;35.03;;;;;;;7.21;48.68;102983.44;7398836;19;20003;-57
2022/12/01 10:42:48;;;;;;;68.38;34.97;;;;;;;7.25;48.52;102987.25;7396858;19;20006;-58
2022/12/01 10:45:24;;;;;;;65.60;32.63;;;;;;;7.20;48.52;102977.19;7398012;19;20015;-57
2022/12/01 10:48:17;;;;;;;66.38;32.13;;;;;;;7.12;47.99;102976.88;7395638;19;20006;-58
2022/12/01 10:50:50;;;;;;;58.03;29.67;;;;;;;7.18;48.25;102976.63;7399522;19;20039;-59
2022/12/01 10:53:22;;;;;;;62.50;32.38;;;;;;;7.27;47.81;102976.94;7393510;19;20033;-58
2022/12/01 10:56:09;;;;;;;62.63;31.25;;;;;;;7.37;47.86;102976.97;7396097;19;20028;-58
2022/12/01 10:58:48;;;;;;;63.90;31.92;;;;;;;7.42;47.51;102973.47;7392577;19;20010;-59
2022/12/01 11:01:47;;;;;;;61.90;31.52;;;;;;;7.33;47.60;102972.34;7394818;19;20050;-58
2022/12/01 11:04:31;;;;;;;63.05;30.25;;;;;;;7.38;47.22;102969.66;7391195;19;20006;-57
2022/12/01 11:06:57;;;;;;;;;;;;;;;7.36;46.83;102980.78;7394531;19;20364;-58
2022/12/01 11:09:25;;;;;;;63.53;30.60;;;;;;;7.54;47.49;102982.19;7394584;19;19910;-57
2022/12/01 11:12:03;;;;;;;59.05;30.30;;;;;;;7.48;47.25;102972.41;7394936;19;20006;-58
2022/12/01 11:14:50;;;;;;;60.22;31.50;;;;;;;7.39;47.48;102974.81;7395869;19;19994;-58
2022/12/01 11:17:37;;;;;;;61.60;29.73;;;;;;;7.38;47.25;102969.66;7395637;19;20451;-57
2022/12/01 11:20:27;;;;;;;58.50;30.73;;;;;;;7.42;47.02;102974.28;7396456;19;20002;-58
2022/12/01 11:23:19;;;;;;;59.85;30.67;;;;;;;7.49;47.03;102968.59;7393674;19;20002;-59
2022/12/01 11:26:29;;;;;;;54.95;29.70;;;;;;;7.41;46.41;102969.94;7394434;19;20010;-58
2022/12/01 11:28:58;;;;;;;59.75;28.38;;;;;;;7.38;47.38;102966.94;7391998;19;20018;-58
2022/12/01 11:31:45;;;;;;;64.93;31.48;;;;;;;7.22;47.51;102968.78;7394498;19;20518;-58
2022/12/01 11:34:30;;;;;;;60.85;29.75;;;;;;;7.33;47.45;102967.75;7394805;19;20054;-59